Dan Fighter — OVUE2 — position and weather

sailwx.info

Track history (hours):
 
Tides and Currents Weather Stations Pressure Air Temp Water Temp Dewpoint Dewpoint Depression Visibility Wind Speed Wind Dir Waves Ship Positions

Dan Fighter

Last reported at 2015-May-03 20:33 UTC. Time now 2015-May-03 20:56 UTC.
Position N 54°02' E 007°52'.

Length 64 m; draft 3.1 m.

Type: Cargo ship. MMSI: 220386978.

Date/timePositionNaut miles runAvg speedWind from/ knotsBaromVisibWave heightAir tempDewpointWater temp
2015-May-03 20:33N 54°02' E 007°52'8 7.5
2015-May-03 19:33N 54°01' E 008°05'8 8.5
2015-May-03 18:33N 54°00' E 008°19'1110.6
2015-May-03 17:33N 53°58' E 008°36'1211.8
2015-May-03 16:33N 53°51' E 008°52'1211.9
2015-May-03 15:33N 53°53' E 009°12'9 9.2
2015-May-03 14:33N 53°47' E 009°23'8 7.7
2015-May-03 13:33N 53°40' E 009°31'7 6.9
2015-May-03 12:34N 53°35' E 009°37'6 6.3
2015-May-03 11:34N 53°33' E 009°48'4 4.3
2015-May-03 10:33N 53°31' E 009°54'0 0.0
2015-May-03 09:31N 53°31' E 009°54'0 0.0
2015-May-03 08:31N 53°31' E 009°54'0 0.0
2015-May-03 07:32N 53°31' E 009°54'0 0.0
2015-May-03 05:23N 53°31' E 009°54'0 0.0
2015-May-03 04:33N 53°31' E 009°54'0 0.0
2015-May-03 03:29N 53°31' E 009°54'0 0.0
2015-May-03 02:19N 53°31' E 009°54'0 0.0
2015-May-03 01:26N 53°31' E 009°54'0 0.0
2015-May-03 00:31N 53°31' E 009°54'0 0.0
2015-May-02 23:31N 53°31' E 009°54'0 0.0
2015-May-02 22:31N 53°31' E 009°54'0 0.0
2015-May-02 21:31N 53°31' E 009°54'0 0.0
2015-May-02 20:32N 53°31' E 009°54'0 0.0
2015-May-02 19:32N 53°31' E 009°54'0 0.0
2015-May-02 18:32N 53°31' E 009°54'0 0.0
2015-May-02 17:32N 53°31' E 009°54'0 0.0
2015-May-02 16:32N 53°31' E 009°54'0 0.0
2015-May-02 15:29N 53°31' E 009°54'0 0.0
2015-May-02 14:28N 53°31' E 009°54'0 0.0
2015-May-02 13:31N 53°31' E 009°54'0 0.0
2015-May-02 12:32N 53°31' E 009°54'1 0.8
2015-May-02 11:33N 53°32' E 009°53'1110.8
2015-May-02 10:33N 53°36' E 009°36'1211.6
2015-May-02 09:33N 53°45' E 009°24'1110.6
2015-May-02 08:33N 53°53' E 009°12'9 9.4
2015-May-02 07:33N 53°51' E 008°57'8 7.8
2015-May-02 06:33N 53°52' E 008°44'7 7.3
2015-May-02 05:33N 53°58' E 008°36'7 7.3
2015-May-02 04:33N 53°59' E 008°24'8 8.2
2015-May-02 03:33N 53°59' E 008°10'9 8.9
2015-May-02 02:33N 53°57' E 007°55'9 8.5
2015-May-02 01:33N 53°55' E 007°41'8 8.3
2015-May-02 00:33N 53°54' E 007°27'9 8.4
2015-May-01 23:30N 53°52' E 007°12'43 8.7
2015-May-01 18:33N 53°50' E 005°60'1010.4
2015-May-01 17:33N 53°49' E 005°42'1010.2
2015-May-01 16:33N 53°48' E 005°25'1010.0
2015-May-01 15:33N 53°48' E 005°08'161 8.9
2015-Apr-30 21:27N 53°33' E 000°38'8 8.4
2015-Apr-30 20:32N 53°33' E 000°25'8 7.7
2015-Apr-30 19:33N 53°33' E 000°12'1110.5
2015-Apr-30 18:33N 53°36' W 000°05'1111.1
2015-Apr-30 17:34N 53°43' W 000°19'10 8.3
2015-Apr-30 16:25N 53°43' W 000°35'4 0.3
2015-Apr-30 02:33N 53°41' W 000°31'10 9.6
2015-Apr-30 01:34N 53°43' W 000°15'10 9.9
2015-Apr-30 00:34N 53°36' W 000°03'9 8.9
2015-Apr-29 23:34N 53°33' E 000°11'5 5.4
2015-Apr-29 22:34N 53°33' E 000°20'6 5.7
2015-Apr-29 21:34N 53°34' E 000°29'5 5.2
2015-Apr-29 20:33N 53°38' E 000°34'2 1.5
2015-Apr-29 19:33N 53°37' E 000°34'2 1.7
2015-Apr-29 18:33N 53°35' E 000°35'1 1.1
2015-Apr-29 17:32N 53°34' E 000°35'2 2.2
2015-Apr-29 16:33N 53°34' E 000°38'145 7.2
2015-Apr-28 20:20N 53°46' E 004°42'6 7.7
2015-Apr-28 19:32N 53°46' E 004°52'7 7.3
2015-Apr-28 18:33N 53°47' E 005°04'7 6.7
2015-Apr-28 17:33N 53°48' E 005°15'5 5.2
2015-Apr-28 16:33N 53°47' E 005°24'6 5.7
2015-Apr-28 15:33N 53°48' E 005°34'6 5.9
2015-Apr-28 14:33N 53°48' E 005°44'7 6.6
2015-Apr-28 13:33N 53°49' E 005°55'45 8.4
2015-Apr-28 08:10N 53°57' E 007°10'5 7.8
2015-Apr-28 07:34N 53°58' E 007°18'8 7.8
2015-Apr-28 06:33N 53°60' E 007°31'8 7.5
2015-Apr-28 05:33N 54°02' E 007°44'8 7.5
2015-Apr-28 04:33N 54°02' E 007°56'8 7.6
2015-Apr-28 03:33N 54°01' E 008°09'8 8.0
2015-Apr-28 02:33N 53°60' E 008°23'9 9.2
2015-Apr-28 01:33N 53°58' E 008°38'1110.6
2015-Apr-28 00:33N 53°51' E 008°51'1212.0
2015-Apr-27 23:34N 53°53' E 009°11'1010.3
2015-Apr-27 22:33N 53°46' E 009°24'9 8.8
2015-Apr-27 21:33N 53°38' E 009°32'8 7.7
2015-Apr-27 20:34N 53°34' E 009°42'7 6.8
2015-Apr-27 19:33N 53°32' E 009°53'1 0.7
2015-Apr-27 18:31N 53°31' E 009°54'0 0.0
2015-Apr-27 17:31N 53°31' E 009°54'0 0.0
2015-Apr-27 16:31N 53°31' E 009°54'0 0.0
2015-Apr-27 15:31N 53°31' E 009°54'0 0.0
2015-Apr-27 14:31N 53°31' E 009°54'0 0.0
2015-Apr-27 13:32N 53°31' E 009°54'0 0.0
2015-Apr-27 12:34N 53°31' E 009°54'3 3.3
2015-Apr-27 11:33N 53°33' E 009°49'6 6.4
2015-Apr-27 10:33N 53°34' E 009°39'5 2.2
2015-Apr-27 08:28N 53°37' E 009°32'0 0.0
2015-Apr-27 07:28N 53°37' E 009°32'0 0.0
2015-Apr-27 06:28N 53°37' E 009°32'0 0.0
2015-Apr-27 05:28N 53°37' E 009°32'2 1.8
2015-Apr-27 04:33N 53°39' E 009°31'10 9.5
2015-Apr-27 03:33N 53°47' E 009°23'8 8.5
2015-Apr-27 02:33N 53°53' E 009°13'7 7.4
2015-Apr-27 01:33N 53°51' E 009°01'7 6.6
2015-Apr-27 00:33N 53°50' E 008°49'6 5.7
2015-Apr-26 23:33N 53°54' E 008°42'6 5.5
2015-Apr-26 22:33N 53°58' E 008°35'7 6.6
2015-Apr-26 21:33N 53°59' E 008°24'7 6.6
2015-Apr-26 20:33N 53°59' E 008°13'7 6.6
2015-Apr-26 19:33N 54°01' E 008°02'8 7.7
2015-Apr-26 18:33N 54°04' E 007°50'8 8.2
2015-Apr-26 17:33N 54°08' E 007°38'9 8.6
2015-Apr-26 16:33N 54°13' E 007°26'9 8.8
2015-Apr-26 15:33N 54°17' E 007°13'9 9.1
2015-Apr-26 14:33N 54°22' E 006°60'326 8.5
2015-Apr-25 00:17N 57°17' W 001°10'7 9.3
2015-Apr-24 23:33N 57°21' W 001°21'9 9.0
2015-Apr-24 22:33N 57°26' W 001°35'8 7.2
2015-Apr-24 21:31N 57°30' W 001°46'0 0.0
2015-Apr-24 20:31N 57°30' W 001°46'1 1.3
2015-Apr-24 19:33N 57°29' W 001°45'9 9.2
2015-Apr-24 18:33N 57°29' W 001°28'10 9.7
2015-Apr-24 17:33N 57°29' W 001°10'10 9.6
2015-Apr-24 16:33N 57°29' W 000°52'  
Track history (hours):
 
Tides and Currents Weather Stations Pressure Air Temp Water Temp Dewpoint Dewpoint Depression Visibility Wind Speed Wind Dir Waves Ship Positions

Dan Fighter

Last reported at 2015-May-03 20:33 UTC. Time now 2015-May-03 20:56 UTC.
Position N 54°02' E 007°52'.

Length 64 m; draft 3.1 m.

Type: Cargo ship. MMSI: 220386978.

Date/timePositionNaut miles runAvg speedWind from/ knotsBaromVisibWave heightAir tempDewpointWater temp
2015-May-03 20:33N 54°02' E 007°52'8 7.5
2015-May-03 19:33N 54°01' E 008°05'8 8.5
2015-May-03 18:33N 54°00' E 008°19'1110.6
2015-May-03 17:33N 53°58' E 008°36'1211.8
2015-May-03 16:33N 53°51' E 008°52'1211.9
2015-May-03 15:33N 53°53' E 009°12'9 9.2
2015-May-03 14:33N 53°47' E 009°23'8 7.7
2015-May-03 13:33N 53°40' E 009°31'7 6.9
2015-May-03 12:34N 53°35' E 009°37'6 6.3
2015-May-03 11:34N 53°33' E 009°48'4 4.3
2015-May-03 10:33N 53°31' E 009°54'0 0.0
2015-May-03 09:31N 53°31' E 009°54'0 0.0
2015-May-03 08:31N 53°31' E 009°54'0 0.0
2015-May-03 07:32N 53°31' E 009°54'0 0.0
2015-May-03 05:23N 53°31' E 009°54'0 0.0
2015-May-03 04:33N 53°31' E 009°54'0 0.0
2015-May-03 03:29N 53°31' E 009°54'0 0.0
2015-May-03 02:19N 53°31' E 009°54'0 0.0
2015-May-03 01:26N 53°31' E 009°54'0 0.0
2015-May-03 00:31N 53°31' E 009°54'0 0.0
2015-May-02 23:31N 53°31' E 009°54'0 0.0
2015-May-02 22:31N 53°31' E 009°54'0 0.0
2015-May-02 21:31N 53°31' E 009°54'0 0.0
2015-May-02 20:32N 53°31' E 009°54'0 0.0
2015-May-02 19:32N 53°31' E 009°54'0 0.0
2015-May-02 18:32N 53°31' E 009°54'0 0.0
2015-May-02 17:32N 53°31' E 009°54'0 0.0
2015-May-02 16:32N 53°31' E 009°54'0 0.0
2015-May-02 15:29N 53°31' E 009°54'0 0.0
2015-May-02 14:28N 53°31' E 009°54'0 0.0
2015-May-02 13:31N 53°31' E 009°54'0 0.0
2015-May-02 12:32N 53°31' E 009°54'1 0.8
2015-May-02 11:33N 53°32' E 009°53'1110.8
2015-May-02 10:33N 53°36' E 009°36'1211.6
2015-May-02 09:33N 53°45' E 009°24'1110.6
2015-May-02 08:33N 53°53' E 009°12'9 9.4
2015-May-02 07:33N 53°51' E 008°57'8 7.8
2015-May-02 06:33N 53°52' E 008°44'7 7.3
2015-May-02 05:33N 53°58' E 008°36'7 7.3
2015-May-02 04:33N 53°59' E 008°24'8 8.2
2015-May-02 03:33N 53°59' E 008°10'9 8.9
2015-May-02 02:33N 53°57' E 007°55'9 8.5
2015-May-02 01:33N 53°55' E 007°41'8 8.3
2015-May-02 00:33N 53°54' E 007°27'9 8.4
2015-May-01 23:30N 53°52' E 007°12'43 8.7
2015-May-01 18:33N 53°50' E 005°60'1010.4
2015-May-01 17:33N 53°49' E 005°42'1010.2
2015-May-01 16:33N 53°48' E 005°25'1010.0
2015-May-01 15:33N 53°48' E 005°08'161 8.9
2015-Apr-30 21:27N 53°33' E 000°38'8 8.4
2015-Apr-30 20:32N 53°33' E 000°25'8 7.7
2015-Apr-30 19:33N 53°33' E 000°12'1110.5
2015-Apr-30 18:33N 53°36' W 000°05'1111.1
2015-Apr-30 17:34N 53°43' W 000°19'10 8.3
2015-Apr-30 16:25N 53°43' W 000°35'4 0.3
2015-Apr-30 02:33N 53°41' W 000°31'10 9.6
2015-Apr-30 01:34N 53°43' W 000°15'10 9.9
2015-Apr-30 00:34N 53°36' W 000°03'9 8.9
2015-Apr-29 23:34N 53°33' E 000°11'5 5.4
2015-Apr-29 22:34N 53°33' E 000°20'6 5.7
2015-Apr-29 21:34N 53°34' E 000°29'5 5.2
2015-Apr-29 20:33N 53°38' E 000°34'2 1.5
2015-Apr-29 19:33N 53°37' E 000°34'2 1.7
2015-Apr-29 18:33N 53°35' E 000°35'1 1.1
2015-Apr-29 17:32N 53°34' E 000°35'2 2.2
2015-Apr-29 16:33N 53°34' E 000°38'145 7.2
2015-Apr-28 20:20N 53°46' E 004°42'6 7.7
2015-Apr-28 19:32N 53°46' E 004°52'7 7.3
2015-Apr-28 18:33N 53°47' E 005°04'7 6.7
2015-Apr-28 17:33N 53°48' E 005°15'5 5.2
2015-Apr-28 16:33N 53°47' E 005°24'6 5.7
2015-Apr-28 15:33N 53°48' E 005°34'6 5.9
2015-Apr-28 14:33N 53°48' E 005°44'7 6.6
2015-Apr-28 13:33N 53°49' E 005°55'45 8.4
2015-Apr-28 08:10N 53°57' E 007°10'5 7.8
2015-Apr-28 07:34N 53°58' E 007°18'8 7.8
2015-Apr-28 06:33N 53°60' E 007°31'8 7.5
2015-Apr-28 05:33N 54°02' E 007°44'8 7.5
2015-Apr-28 04:33N 54°02' E 007°56'8 7.6
2015-Apr-28 03:33N 54°01' E 008°09'8 8.0
2015-Apr-28 02:33N 53°60' E 008°23'9 9.2
2015-Apr-28 01:33N 53°58' E 008°38'1110.6
2015-Apr-28 00:33N 53°51' E 008°51'1212.0
2015-Apr-27 23:34N 53°53' E 009°11'1010.3
2015-Apr-27 22:33N 53°46' E 009°24'9 8.8
2015-Apr-27 21:33N 53°38' E 009°32'8 7.7
2015-Apr-27 20:34N 53°34' E 009°42'7 6.8
2015-Apr-27 19:33N 53°32' E 009°53'1 0.7
2015-Apr-27 18:31N 53°31' E 009°54'0 0.0
2015-Apr-27 17:31N 53°31' E 009°54'0 0.0
2015-Apr-27 16:31N 53°31' E 009°54'0 0.0
2015-Apr-27 15:31N 53°31' E 009°54'0 0.0
2015-Apr-27 14:31N 53°31' E 009°54'0 0.0
2015-Apr-27 13:32N 53°31' E 009°54'0 0.0
2015-Apr-27 12:34N 53°31' E 009°54'3 3.3
2015-Apr-27 11:33N 53°33' E 009°49'6 6.4
2015-Apr-27 10:33N 53°34' E 009°39'5 2.2
2015-Apr-27 08:28N 53°37' E 009°32'0 0.0
2015-Apr-27 07:28N 53°37' E 009°32'0 0.0
2015-Apr-27 06:28N 53°37' E 009°32'0 0.0
2015-Apr-27 05:28N 53°37' E 009°32'2 1.8
2015-Apr-27 04:33N 53°39' E 009°31'10 9.5
2015-Apr-27 03:33N 53°47' E 009°23'8 8.5
2015-Apr-27 02:33N 53°53' E 009°13'7 7.4
2015-Apr-27 01:33N 53°51' E 009°01'7 6.6
2015-Apr-27 00:33N 53°50' E 008°49'6 5.7
2015-Apr-26 23:33N 53°54' E 008°42'6 5.5
2015-Apr-26 22:33N 53°58' E 008°35'7 6.6
2015-Apr-26 21:33N 53°59' E 008°24'7 6.6
2015-Apr-26 20:33N 53°59' E 008°13'7 6.6
2015-Apr-26 19:33N 54°01' E 008°02'8 7.7
2015-Apr-26 18:33N 54°04' E 007°50'8 8.2
2015-Apr-26 17:33N 54°08' E 007°38'9 8.6
2015-Apr-26 16:33N 54°13' E 007°26'9 8.8
2015-Apr-26 15:33N 54°17' E 007°13'9 9.1
2015-Apr-26 14:33N 54°22' E 006°60'326 8.5
2015-Apr-25 00:17N 57°17' W 001°10'7 9.3
2015-Apr-24 23:33N 57°21' W 001°21'9 9.0
2015-Apr-24 22:33N 57°26' W 001°35'8 7.2
2015-Apr-24 21:31N 57°30' W 001°46'0 0.0
2015-Apr-24 20:31N 57°30' W 001°46'1 1.3
2015-Apr-24 19:33N 57°29' W 001°45'9 9.2
2015-Apr-24 18:33N 57°29' W 001°28'10 9.7
2015-Apr-24 17:33N 57°29' W 001°10'10 9.6
2015-Apr-24 16:33N 57°29' W 000°52'  

Dump ship's entire track history